Upton, New York
Current Conditions -  °F | °C
As of 1:56 PM on Sunday 21 Dec 2014 (Local Time) from KHWV Reporting Station
Overcast Overcast  
Wind Chill: 29°   Ceiling: 800
Heat Index: 36°   Visibility: 10mi
Dew Point: 33°   Wind: 9mph
Humidity: 89%   Direction: 350°N
Pressure: 30.27"   Gusts: NA
Location:  40.87°N, 72.89°W
Report Text: KHWV 211856Z AUTO 35008KT 10SM OVC008 02/01 A3027 RMK AO2 UPE07 SLP249 P0000 T00220006 TSNO
Loading
Personal Weather Stations






























Interactive Weather Map New forecast layout! Learn more

10-Day Weather Forecast

Advertisements
Track Severe Weather on mobile